Time;durP1;ratioP1;P1;durP2;ratioP2;P2;SDS_P1;SDS_P2;PMS_P1;PMS_P2;Temp;Humidity;BMP_temperature;BMP_pressure;BME280_temperature;BME280_humidity;BME280_pressure;Samples;Min_cycle;Max_cycle;Signal;HPM_P1;HPM_P2
2021/03/15 00:01:00;;;;;;;240.95;217.30;;;;;;;;;;5068312;28;20094;-76
2021/03/15 00:03:25;;;;;;;241.43;217.75;;;;;;;;;;5060932;28;20029;-76
2021/03/15 00:05:51;;;;;;;236.45;213.80;;;;;;;;;;5067720;28;20101;-76
2021/03/15 00:08:16;;;;;;;235.57;212.27;;;;;;;;;;5066431;28;20473;-76
2021/03/15 00:10:42;;;;;;;224.85;202.65;;;;;;;;;;5065115;28;20035;-76
2021/03/15 00:13:08;;;;;;;216.98;195.18;;;;;;;;;;5059054;28;20016;-76
2021/03/15 00:15:33;;;;;;;226.40;205.20;;;;;;;;;;5064941;28;20031;-76
2021/03/15 00:17:59;;;;;;;208.82;188.27;;;;;;;;;;5063356;28;20027;-76
2021/03/15 00:20:24;;;;;;;201.38;181.25;;;;;;;;;;5060894;28;20039;-76
2021/03/15 00:22:50;;;;;;;208.75;187.77;;;;;;;;;;5053722;28;20477;-76
2021/03/15 00:25:16;;;;;;;214.73;194.43;;;;;;;;;;5054292;28;20037;-76
2021/03/15 00:27:42;;;;;;;224.90;203.23;;;;;;;;;;5066745;28;20029;-76
2021/03/15 00:30:08;;;;;;;223.88;201.00;;;;;;;;;;5067222;28;20036;-76
2021/03/15 00:32:34;;;;;;;230.50;207.57;;;;;;;;;;5059756;28;20515;-76
2021/03/15 00:34:59;;;;;;;224.65;201.95;;;;;;;;;;5052367;28;20056;-76
2021/03/15 00:37:25;;;;;;;231.57;207.68;;;;;;;;;;5052172;28;20029;-76
2021/03/15 00:39:50;;;;;;;236.98;214.13;;;;;;;;;;5051381;28;20450;-76
2021/03/15 00:42:16;;;;;;;241.10;216.70;;;;;;;;;;5052357;28;20071;-76
2021/03/15 00:44:41;;;;;;;241.95;218.05;;;;;;;;;;5054840;28;20028;-76
2021/03/15 00:47:06;;;;;;;225.52;202.68;;;;;;;;;;5056519;28;20036;-76
2021/03/15 00:49:32;;;;;;;221.77;199.68;;;;;;;;;;5059436;28;20037;-76
2021/03/15 00:51:57;;;;;;;228.95;206.80;;;;;;;;;;5059571;28;20027;-76
2021/03/15 00:54:23;;;;;;;228.52;206.25;;;;;;;;;;5058274;28;20026;-76
2021/03/15 00:56:51;;;;;;;221.00;198.82;;;;;;;;;;5057864;28;20127;-77
2021/03/15 00:59:17;;;;;;;214.43;192.85;;;;;;;;;;5068087;28;20020;-77
2021/03/15 01:01:44;;;;;;;214.70;193.20;;;;;;;;;;5059165;28;20071;-77
2021/03/15 01:04:12;;;;;;;218.75;197.15;;;;;;;;;;5060340;28;20032;-76
2021/03/15 01:06:39;;;;;;;224.82;201.25;;;;;;;;;;5054373;28;20053;-77
2021/03/15 01:09:11;;;;;;;211.00;190.27;;;;;;;;;;5055505;28;20488;-77
2021/03/15 01:11:44;;;;;;;219.32;196.68;;;;;;;;;;5065722;28;20124;-77
2021/03/15 01:14:12;;;;;;;214.32;191.90;;;;;;;;;;5058184;28;20044;-76
2021/03/15 01:16:58;;;;;;;212.60;190.70;;;;;;;;;;5058157;28;20457;-77
2021/03/15 01:19:26;;;;;;;202.85;182.50;;;;;;;;;;5061792;28;20397;-77
2021/03/15 01:21:52;;;;;;;214.00;192.57;;;;;;;;;;5060229;28;20051;-77
2021/03/15 01:24:17;;;;;;;211.50;190.82;;;;;;;;;;5060996;28;20064;-77
2021/03/15 01:26:42;;;;;;;216.63;194.00;;;;;;;;;;5059597;28;20552;-77
2021/03/15 01:29:08;;;;;;;207.13;186.25;;;;;;;;;;5061253;28;20534;-77
2021/03/15 01:31:33;;;;;;;206.30;185.57;;;;;;;;;;5062897;28;20024;-77
2021/03/15 01:33:59;;;;;;;212.30;192.10;;;;;;;;;;5061109;28;20021;-77
2021/03/15 01:36:24;;;;;;;218.82;197.13;;;;;;;;;;5063890;28;20025;-77
2021/03/15 01:38:50;;;;;;;222.30;200.38;;;;;;;;;;5065571;28;20043;-77
2021/03/15 01:41:15;;;;;;;218.15;196.70;;;;;;;;;;5064466;28;20119;-77
2021/03/15 01:43:41;;;;;;;229.07;205.57;;;;;;;;;;5065070;28;20025;-77
2021/03/15 01:46:07;;;;;;;219.20;197.55;;;;;;;;;;5065425;28;20547;-77
2021/03/15 01:48:32;;;;;;;214.65;192.65;;;;;;;;;;5063388;28;20040;-77
2021/03/15 01:50:58;;;;;;;221.90;198.93;;;;;;;;;;5065522;28;20030;-77
2021/03/15 01:53:23;;;;;;;218.48;196.75;;;;;;;;;;5063382;28;20025;-77
2021/03/15 01:55:49;;;;;;;227.00;204.00;;;;;;;;;;5065195;28;20020;-77
2021/03/15 01:58:15;;;;;;;225.35;201.38;;;;;;;;;;5064202;28;20154;-77
2021/03/15 02:00:41;;;;;;;219.15;196.63;;;;;;;;;;5065315;28;20064;-77
2021/03/15 02:03:09;;;;;;;245.30;219.98;;;;;;;;;;5063481;28;20155;-77
2021/03/15 02:05:35;;;;;;;264.10;237.48;;;;;;;;;;5057573;28;20137;-77
2021/03/15 02:08:01;;;;;;;254.45;227.25;;;;;;;;;;5058002;28;20111;-77
2021/03/15 02:10:26;;;;;;;265.73;236.93;;;;;;;;;;5050044;28;20120;-76
2021/03/15 02:13:01;;;;;;;255.32;229.80;;;;;;;;;;5054160;28;20032;-76
2021/03/15 02:15:37;;;;;;;251.75;226.23;;;;;;;;;;5063817;28;20032;-76
2021/03/15 02:18:05;;;;;;;255.77;229.48;;;;;;;;;;5065013;28;20125;-76
2021/03/15 02:20:40;;;;;;;240.27;217.02;;;;;;;;;;5057907;28;20028;-76
2021/03/15 02:23:07;;;;;;;237.85;214.57;;;;;;;;;;5061960;28;20036;-77
2021/03/15 02:25:45;;;;;;;252.35;226.90;;;;;;;;;;5063503;28;20036;-77
2021/03/15 02:28:13;;;;;;;235.98;211.98;;;;;;;;;;5064358;28;20032;-77
2021/03/15 02:30:44;;;;;;;242.65;217.15;;;;;;;;;;5057723;28;20021;-76
2021/03/15 02:33:25;;;;;;;233.40;210.10;;;;;;;;;;5051988;28;20020;-77
2021/03/15 02:35:50;;;;;;;222.98;200.38;;;;;;;;;;5050718;28;20515;-77
2021/03/15 02:38:18;;;;;;;226.93;202.98;;;;;;;;;;5051778;28;20021;-77
2021/03/15 02:40:45;;;;;;;233.07;209.38;;;;;;;;;;5057484;28;20400;-77
2021/03/15 02:43:21;;;;;;;228.93;205.43;;;;;;;;;;5055624;28;20210;-77
2021/03/15 02:45:49;;;;;;;226.27;203.20;;;;;;;;;;5059367;28;20555;-77
2021/03/15 02:48:16;;;;;;;226.75;202.40;;;;;;;;;;5052497;28;20032;-76
2021/03/15 02:50:43;;;;;;;234.55;210.98;;;;;;;;;;5065831;28;20028;-76
2021/03/15 02:53:10;;;;;;;228.95;205.30;;;;;;;;;;5055176;28;20032;-76
2021/03/15 02:55:36;;;;;;;235.65;211.55;;;;;;;;;;5061072;28;20532;-76
2021/03/15 02:58:03;;;;;;;226.55;203.25;;;;;;;;;;5054954;28;20017;-76
2021/03/15 03:00:29;;;;;;;226.82;204.05;;;;;;;;;;5056948;28;20539;-76
2021/03/15 03:02:55;;;;;;;229.52;206.07;;;;;;;;;;5067525;28;20036;-76
2021/03/15 03:05:21;;;;;;;242.38;217.20;;;;;;;;;;5066705;28;20134;-76
2021/03/15 03:07:48;;;;;;;237.05;212.32;;;;;;;;;;5064738;28;20321;-76
2021/03/15 03:10:14;;;;;;;244.40;219.20;;;;;;;;;;5067929;28;20035;-76
2021/03/15 03:12:40;;;;;;;240.18;215.52;;;;;;;;;;5067724;28;20115;-76
2021/03/15 03:15:08;;;;;;;249.02;222.70;;;;;;;;;;5062676;28;20086;-76
2021/03/15 03:17:40;;;;;;;252.45;226.48;;;;;;;;;;5067105;28;20024;-76
2021/03/15 03:20:10;;;;;;;248.77;223.45;;;;;;;;;;5068297;28;20028;-76
2021/03/15 03:22:39;;;;;;;255.20;229.43;;;;;;;;;;5066088;28;20037;-76
2021/03/15 03:25:06;;;;;;;258.95;232.80;;;;;;;;;;5064328;28;20016;-76
2021/03/15 03:27:31;;;;;;;268.83;242.38;;;;;;;;;;5066420;28;20083;-76
2021/03/15 03:29:58;;;;;;;258.10;231.23;;;;;;;;;;5068319;28;20016;-76
2021/03/15 03:32:23;;;;;;;264.02;237.68;;;;;;;;;;5066638;28;20456;-76
2021/03/15 03:34:49;;;;;;;269.25;241.52;;;;;;;;;;5068157;28;20028;-76
2021/03/15 03:37:15;;;;;;;271.80;243.52;;;;;;;;;;5067019;28;20036;-76
2021/03/15 03:39:40;;;;;;;275.25;247.52;;;;;;;;;;5067278;28;20027;-77
2021/03/15 03:42:06;;;;;;;284.23;254.95;;;;;;;;;;5067739;28;20037;-76
2021/03/15 03:44:31;;;;;;;290.15;260.30;;;;;;;;;;5065990;28;20108;-76
2021/03/15 03:46:56;;;;;;;293.60;264.83;;;;;;;;;;5068111;28;20081;-75
2021/03/15 03:49:22;;;;;;;281.27;252.68;;;;;;;;;;5065986;28;20059;-75
2021/03/15 03:51:50;;;;;;;290.88;261.10;;;;;;;;;;5067734;28;20037;-76
2021/03/15 03:54:17;;;;;;;295.15;265.25;;;;;;;;;;5066389;28;20077;-75
2021/03/15 03:56:49;;;;;;;320.05;287.35;;;;;;;;;;5067454;28;20085;-75
2021/03/15 03:59:15;;;;;;;301.27;269.85;;;;;;;;;;5066805;28;20040;-75
2021/03/15 04:01:42;;;;;;;319.27;286.98;;;;;;;;;;5061779;28;20063;-76
2021/03/15 04:04:08;;;;;;;320.23;288.65;;;;;;;;;;5057737;28;20482;-77
2021/03/15 04:06:35;;;;;;;303.23;271.73;;;;;;;;;;5064919;28;20060;-76
2021/03/15 04:09:23;;;;;;;303.33;272.45;;;;;;;;;;5059432;28;20386;-76
2021/03/15 04:11:49;;;;;;;299.60;269.33;;;;;;;;;;5061989;28;20036;-77
2021/03/15 04:14:16;;;;;;;291.02;261.05;;;;;;;;;;5064259;28;20572;-77
2021/03/15 04:16:43;;;;;;;280.35;252.65;;;;;;;;;;5064792;28;20124;-77
2021/03/15 04:19:09;;;;;;;273.02;244.93;;;;;;;;;;5064714;28;20481;-77
2021/03/15 04:21:34;;;;;;;274.95;246.93;;;;;;;;;;5053208;28;20067;-77
2021/03/15 04:24:01;;;;;;;271.67;243.45;;;;;;;;;;5063642;28;20101;-77
2021/03/15 04:26:26;;;;;;;263.60;235.98;;;;;;;;;;5059798;28;20048;-77
2021/03/15 04:28:52;;;;;;;259.60;234.02;;;;;;;;;;5055996;28;20088;-77
2021/03/15 04:31:18;;;;;;;255.50;228.52;;;;;;;;;;5053933;28;20061;-77
2021/03/15 04:33:44;;;;;;;258.15;231.48;;;;;;;;;;5067343;28;20017;-77
2021/03/15 04:36:13;;;;;;;250.68;224.25;;;;;;;;;;5066758;28;20048;-77
2021/03/15 04:38:39;;;;;;;246.70;221.63;;;;;;;;;;5066208;28;20381;-77
2021/03/15 04:41:04;;;;;;;245.38;218.80;;;;;;;;;;5067092;28;20081;-77
2021/03/15 04:43:31;;;;;;;241.38;217.05;;;;;;;;;;5065401;28;20099;-77
2021/03/15 04:45:57;;;;;;;243.15;218.40;;;;;;;;;;5067410;28;20033;-76
2021/03/15 04:48:25;;;;;;;232.63;207.88;;;;;;;;;;5065023;28;20032;-77
2021/03/15 04:50:58;;;;;;;219.35;197.43;;;;;;;;;;5066749;28;20051;-77
2021/03/15 04:53:25;;;;;;;225.15;202.25;;;;;;;;;;5064666;28;20024;-76
2021/03/15 04:55:51;;;;;;;223.25;200.95;;;;;;;;;;5066894;28;20408;-77
2021/03/15 04:58:18;;;;;;;228.13;204.57;;;;;;;;;;5065438;28;20040;-77
2021/03/15 05:00:45;;;;;;;227.57;205.05;;;;;;;;;;5060863;28;20032;-77
2021/03/15 05:03:13;;;;;;;226.07;203.70;;;;;;;;;;5060396;28;20043;-77
2021/03/15 05:05:39;;;;;;;229.10;205.73;;;;;;;;;;5061433;28;20041;-77
2021/03/15 05:08:05;;;;;;;226.98;203.85;;;;;;;;;;5061569;28;20035;-77
2021/03/15 05:10:31;;;;;;;220.85;198.57;;;;;;;;;;5058764;28;20013;-77
2021/03/15 05:12:58;;;;;;;218.75;196.25;;;;;;;;;;5059213;28;20029;-77
2021/03/15 05:15:23;;;;;;;223.68;201.02;;;;;;;;;;5063639;28;20048;-77
2021/03/15 05:17:50;;;;;;;228.02;205.40;;;;;;;;;;5066522;28;20110;-77
2021/03/15 05:20:16;;;;;;;234.80;211.20;;;;;;;;;;5065447;28;20479;-77
2021/03/15 05:22:42;;;;;;;245.23;219.50;;;;;;;;;;5055275;28;20036;-77
2021/03/15 05:25:09;;;;;;;253.93;228.88;;;;;;;;;;5066185;28;20020;-77
2021/03/15 05:27:34;;;;;;;257.63;231.32;;;;;;;;;;5064703;28;20059;-77
2021/03/15 05:30:03;;;;;;;261.95;235.00;;;;;;;;;;5065074;28;20016;-76
2021/03/15 05:32:29;;;;;;;260.58;234.23;;;;;;;;;;5059512;28;20124;-76
2021/03/15 05:34:55;;;;;;;285.08;255.60;;;;;;;;;;5066022;28;20065;-77
2021/03/15 05:37:21;;;;;;;281.50;251.70;;;;;;;;;;5062283;28;20038;-77
2021/03/15 05:39:46;;;;;;;286.77;257.85;;;;;;;;;;5060011;28;20017;-76
2021/03/15 05:42:21;;;;;;;294.27;264.70;;;;;;;;;;5060950;28;20488;-76
2021/03/15 05:44:46;;;;;;;288.50;258.45;;;;;;;;;;5057731;28;20485;-77
2021/03/15 05:47:12;;;;;;;315.70;284.20;;;;;;;;;;5063389;28;20028;-77
2021/03/15 05:49:56;;;;;;;333.38;299.48;;;;;;;;;;5059044;28;20043;-77
2021/03/15 05:52:41;;;;;;;313.02;280.70;;;;;;;;;;5056383;28;20071;-77
2021/03/15 05:55:14;;;;;;;301.83;271.15;;;;;;;;;;5054096;28;20123;-76
2021/03/15 05:57:58;;;;;;;302.35;270.52;;;;;;;;;;5067004;28;20182;-75
2021/03/15 06:00:43;;;;;;;314.60;283.48;;;;;;;;;;5057420;28;20031;-75
2021/03/15 06:03:34;;;;;;;297.83;265.85;;;;;;;;;;5060099;28;20079;-75
2021/03/15 06:06:02;;;;;;;292.90;263.65;;;;;;;;;;5061451;28;20573;-76
2021/03/15 06:08:29;;;;;;;310.05;278.35;;;;;;;;;;5059843;28;20098;-75
2021/03/15 06:11:00;;;;;;;311.23;278.75;;;;;;;;;;5064746;28;20496;-74
2021/03/15 06:13:27;;;;;;;304.48;265.92;;;;;;;;;;5064647;28;20105;-73
2021/03/15 06:15:53;;;;;;;293.80;262.10;;;;;;;;;;5062784;28;20042;-74
2021/03/15 06:18:18;;;;;;;286.65;256.77;;;;;;;;;;5063930;28;20033;-73
2021/03/15 06:20:45;;;;;;;305.35;273.30;;;;;;;;;;5059945;28;20024;-74
2021/03/15 06:23:10;;;;;;;297.50;266.20;;;;;;;;;;5055462;28;20438;-74
2021/03/15 06:25:36;;;;;;;298.30;267.20;;;;;;;;;;5057831;28;20024;-74
2021/03/15 06:28:02;;;;;;;301.55;269.83;;;;;;;;;;5056962;28;20028;-74
2021/03/15 06:30:28;;;;;;;290.17;259.13;;;;;;;;;;5057158;28;20441;-73
2021/03/15 06:32:55;;;;;;;298.00;266.40;;;;;;;;;;5057200;28;20063;-73
2021/03/15 06:35:23;;;;;;;296.73;266.80;;;;;;;;;;5061162;28;20048;-74
2021/03/15 06:37:49;;;;;;;281.00;250.20;;;;;;;;;;5062295;28;20617;-74
2021/03/15 06:40:14;;;;;;;281.50;251.70;;;;;;;;;;5061988;28;20476;-73
2021/03/15 06:42:41;;;;;;;271.08;236.77;;;;;;;;;;5067049;28;20105;-74
2021/03/15 06:45:10;;;;;;;260.63;232.27;;;;;;;;;;5058212;28;20578;-74
2021/03/15 06:47:36;;;;;;;274.50;227.15;;;;;;;;;;5061162;28;20040;-73
2021/03/15 06:50:02;;;;;;;257.85;230.20;;;;;;;;;;5058153;28;20040;-75
2021/03/15 06:52:28;;;;;;;256.63;223.68;;;;;;;;;;5066826;28;20047;-74
2021/03/15 06:54:59;;;;;;;246.82;221.00;;;;;;;;;;5063369;28;20511;-73
2021/03/15 06:57:25;;;;;;;258.05;230.50;;;;;;;;;;5065166;28;20036;-74
2021/03/15 06:59:52;;;;;;;255.40;227.50;;;;;;;;;;5059132;28;20032;-75
2021/03/15 07:02:18;;;;;;;248.13;221.13;;;;;;;;;;5063988;28;20382;-75
2021/03/15 07:04:44;;;;;;;262.13;225.27;;;;;;;;;;5058779;28;20416;-77
2021/03/15 07:07:09;;;;;;;242.27;213.88;;;;;;;;;;5051748;28;20072;-78
2021/03/15 07:09:35;;;;;;;233.35;206.40;;;;;;;;;;5064057;28;20123;-74
2021/03/15 07:12:01;;;;;;;231.18;206.30;;;;;;;;;;5065220;28;20064;-73
2021/03/15 07:14:26;;;;;;;238.75;212.27;;;;;;;;;;5055543;28;20102;-77
2021/03/15 07:16:58;;;;;;;236.57;211.63;;;;;;;;;;5059497;28;20041;-77
2021/03/15 07:19:25;;;;;;;257.08;229.48;;;;;;;;;;5065063;28;20520;-73
2021/03/15 07:21:50;;;;;;;255.73;227.48;;;;;;;;;;5055383;28;20124;-74
2021/03/15 07:24:16;;;;;;;247.40;220.35;;;;;;;;;;5063008;28;20107;-74
2021/03/15 07:26:45;;;;;;;231.05;204.55;;;;;;;;;;5060252;28;20469;-74
2021/03/15 07:29:15;;;;;;;221.88;197.60;;;;;;;;;;5055384;28;20074;-77
2021/03/15 07:31:44;;;;;;;221.65;193.95;;;;;;;;;;5065274;28;20032;-76
2021/03/15 07:34:11;;;;;;;214.73;191.43;;;;;;;;;;5067966;28;20502;-75
2021/03/15 07:36:45;;;;;;;218.77;194.80;;;;;;;;;;5057619;28;20013;-76
2021/03/15 07:39:10;;;;;;;215.30;192.43;;;;;;;;;;5056779;28;20040;-76
2021/03/15 07:41:36;;;;;;;237.82;212.95;;;;;;;;;;5067074;28;20090;-76
2021/03/15 07:44:13;;;;;;;229.32;205.35;;;;;;;;;;5058520;28;20386;-75
2021/03/15 07:46:39;;;;;;;218.73;195.40;;;;;;;;;;5057772;28;20537;-75
2021/03/15 07:49:04;;;;;;;214.82;191.60;;;;;;;;;;5055011;28;20112;-75
2021/03/15 07:51:36;;;;;;;215.15;192.18;;;;;;;;;;5059962;28;20108;-76
2021/03/15 07:54:03;;;;;;;213.55;190.63;;;;;;;;;;5059488;28;20033;-76
2021/03/15 07:56:28;;;;;;;202.82;180.77;;;;;;;;;;5066601;28;20025;-77
2021/03/15 07:58:54;;;;;;;202.25;180.20;;;;;;;;;;5061621;28;20497;-77
2021/03/15 08:01:19;;;;;;;202.38;181.48;;;;;;;;;;5064489;28;20582;-78
2021/03/15 08:03:45;;;;;;;198.18;177.13;;;;;;;;;;5055149;28;20032;-77
2021/03/15 08:06:11;;;;;;;203.70;182.18;;;;;;;;;;5068578;28;20406;-77
2021/03/15 08:08:38;;;;;;;189.27;170.20;;;;;;;;;;5062833;28;20555;-79
2021/03/15 08:11:05;;;;;;;195.15;174.80;;;;;;;;;;5063274;28;20027;-78
2021/03/15 08:13:36;;;;;;;193.45;173.55;;;;;;;;;;5060048;28;20042;-78
2021/03/15 08:16:02;;;;;;;203.75;182.45;;;;;;;;;;5061609;28;20040;-78
2021/03/15 08:18:28;;;;;;;203.50;182.00;;;;;;;;;;5059976;28;20388;-78
2021/03/15 08:21:01;;;;;;;201.35;180.55;;;;;;;;;;5061848;28;20476;-77
2021/03/15 08:23:28;;;;;;;201.80;180.27;;;;;;;;;;5062545;28;20483;-77
2021/03/15 08:26:00;;;;;;;213.32;190.55;;;;;;;;;;5064964;28;20065;-76
2021/03/15 08:28:26;;;;;;;228.57;203.93;;;;;;;;;;5066400;28;20032;-76
2021/03/15 08:30:56;;;;;;;230.95;202.57;;;;;;;;;;5065017;28;20016;-77
2021/03/15 08:33:21;;;;;;;236.27;210.23;;;;;;;;;;5063401;28;20029;-75
2021/03/15 08:35:47;;;;;;;242.90;214.32;;;;;;;;;;5065787;28;20033;-76
2021/03/15 08:38:14;;;;;;;259.25;231.85;;;;;;;;;;5065091;28;20033;-76
2021/03/15 08:40:43;;;;;;;266.35;237.23;;;;;;;;;;5063080;28;20013;-77
2021/03/15 08:43:17;;;;;;;275.85;247.68;;;;;;;;;;5066962;28;20423;-76
2021/03/15 08:45:49;;;;;;;272.10;243.45;;;;;;;;;;5067228;28;20534;-76
2021/03/15 08:48:14;;;;;;;284.95;254.65;;;;;;;;;;5066328;28;20085;-76
2021/03/15 08:50:44;;;;;;;286.38;257.00;;;;;;;;;;5067721;28;20720;-78
2021/03/15 08:53:10;;;;;;;269.50;240.27;;;;;;;;;;5067083;28;20430;-78
2021/03/15 08:55:48;;;;;;;285.73;254.80;;;;;;;;;;5066551;28;20017;-77
2021/03/15 08:58:32;;;;;;;264.58;235.52;;;;;;;;;;5066516;28;20078;-77
2021/03/15 09:00:58;;;;;;;250.93;225.30;;;;;;;;;;5056598;28;20112;-77
2021/03/15 09:03:42;;;;;;;239.27;213.48;;;;;;;;;;5051026;28;20115;-77
2021/03/15 09:06:07;;;;;;;222.80;198.70;;;;;;;;;;5063415;28;20045;-77
2021/03/15 09:08:53;;;;;;;212.48;190.68;;;;;;;;;;5060707;28;20047;-77
2021/03/15 09:11:37;;;;;;;210.13;189.60;;;;;;;;;;5059203;28;20037;-77
2021/03/15 09:14:19;;;;;;;211.60;190.18;;;;;;;;;;5060526;28;20032;-77
2021/03/15 09:16:50;;;;;;;229.95;206.48;;;;;;;;;;5068036;28;20035;-78
2021/03/15 09:19:16;;;;;;;231.50;206.75;;;;;;;;;;5065010;28;20466;-78
2021/03/15 09:21:54;;;;;;;238.02;213.75;;;;;;;;;;5065130;28;20040;-77
2021/03/15 09:24:33;;;;;;;246.35;220.48;;;;;;;;;;5065861;28;20029;-78
2021/03/15 09:26:59;;;;;;;243.30;217.45;;;;;;;;;;5063298;28;20054;-77
2021/03/15 09:29:25;;;;;;;252.07;225.27;;;;;;;;;;5063491;28;20400;-77
2021/03/15 09:32:01;;;;;;;262.00;234.70;;;;;;;;;;5062516;28;20051;-78
2021/03/15 09:34:26;;;;;;;267.80;240.27;;;;;;;;;;5058963;28;20116;-78
2021/03/15 09:36:54;;;;;;;268.50;240.73;;;;;;;;;;5057295;28;20120;-78
2021/03/15 09:39:20;;;;;;;257.63;230.05;;;;;;;;;;5055773;28;20039;-78
2021/03/15 09:41:47;;;;;;;257.10;230.25;;;;;;;;;;5061353;28;20021;-78
2021/03/15 09:44:13;;;;;;;247.70;221.32;;;;;;;;;;5053057;28;20174;-79
2021/03/15 09:46:41;;;;;;;234.98;209.98;;;;;;;;;;5052771;28;20024;-78
2021/03/15 09:49:07;;;;;;;243.18;217.73;;;;;;;;;;5058472;28;20450;-79
2021/03/15 09:51:33;;;;;;;249.50;220.35;;;;;;;;;;5057742;28;20029;-78
2021/03/15 09:54:07;;;;;;;247.80;221.32;;;;;;;;;;5067706;28;20021;-78
2021/03/15 09:56:40;;;;;;;249.88;223.30;;;;;;;;;;5061111;28;20025;-79
2021/03/15 09:59:17;;;;;;;246.68;217.75;;;;;;;;;;5055164;28;20029;-79
2021/03/15 10:01:50;;;;;;;242.00;216.93;;;;;;;;;;5053610;28;20033;-79
2021/03/15 10:04:18;;;;;;;231.75;207.18;;;;;;;;;;5053137;28;20090;-79
2021/03/15 10:07:05;;;;;;;229.10;205.18;;;;;;;;;;5055202;28;20051;-78
2021/03/15 10:09:50;;;;;;;225.77;202.48;;;;;;;;;;5043833;28;20048;-78
2021/03/15 10:12:35;;;;;;;217.77;194.63;;;;;;;;;;5050651;28;20589;-78
2021/03/15 10:15:29;;;;;;;210.15;188.27;;;;;;;;;;5054021;28;20039;-78
2021/03/15 10:18:21;;;;;;;210.18;188.43;;;;;;;;;;5061305;28;20120;-78
2021/03/15 10:21:12;;;;;;;207.45;185.82;;;;;;;;;;5061003;28;20593;-78
2021/03/15 10:23:40;;;;;;;205.57;184.30;;;;;;;;;;5061106;28;20080;-77
2021/03/15 10:26:06;;;;;;;204.93;184.00;;;;;;;;;;5058140;28;20539;-77
2021/03/15 10:28:50;;;;;;;194.80;175.57;;;;;;;;;;5059091;28;20491;-77
2021/03/15 10:31:39;;;;;;;193.98;174.63;;;;;;;;;;5059430;28;20505;-75
2021/03/15 10:34:07;;;;;;;198.70;178.45;;;;;;;;;;5063804;28;20064;-75
2021/03/15 10:36:42;;;;;;;199.02;178.30;;;;;;;;;;5059566;28;20082;-76
2021/03/15 10:39:21;;;;;;;209.05;187.60;;;;;;;;;;5061462;28;20059;-75
2021/03/15 10:41:47;;;;;;;198.13;178.25;;;;;;;;;;5062064;28;20036;-75
2021/03/15 10:44:12;;;;;;;189.15;170.45;;;;;;;;;;5056047;28;20055;-79
2021/03/15 10:46:45;;;;;;;202.88;182.35;;;;;;;;;;5054974;28;20033;-78
2021/03/15 10:49:19;;;;;;;194.15;175.13;;;;;;;;;;5066090;28;20442;-80
2021/03/15 10:51:52;;;;;;;177.48;160.25;;;;;;;;;;5060596;28;20033;-79
2021/03/15 10:54:35;;;;;;;181.00;163.45;;;;;;;;;;5059607;28;20071;-79
2021/03/15 10:57:30;;;;;;;180.63;163.25;;;;;;;;;;5056528;28;20036;-78
2021/03/15 11:00:20;;;;;;;159.90;145.18;;;;;;;;;;5054886;28;20399;-78
2021/03/15 11:02:46;;;;;;;159.60;145.00;;;;;;;;;;5079478;28;20032;-78
2021/03/15 11:05:17;;;;;;;178.98;160.70;;;;;;;;;;5063601;28;20053;-79
2021/03/15 11:07:46;;;;;;;193.75;174.20;;;;;;;;;;5063042;28;20032;-79
2021/03/15 11:10:15;;;;;;;186.07;167.93;;;;;;;;;;5063012;28;20082;-78
2021/03/15 11:12:47;;;;;;;180.27;162.20;;;;;;;;;;5062235;28;20070;-77
2021/03/15 11:15:17;;;;;;;186.13;167.98;;;;;;;;;;5063411;28;20144;-76
2021/03/15 11:18:19;;;;;;;194.73;175.45;;;;;;;;;;5055368;28;20100;-77
2021/03/15 11:20:51;;;;;;;226.10;202.38;;;;;;;;;;5047509;28;20507;-76
2021/03/15 11:23:26;;;;;;;214.02;192.13;;;;;;;;;;5057949;28;20044;-76
2021/03/15 11:26:05;;;;;;;211.43;190.05;;;;;;;;;;5063881;28;20032;-76
2021/03/15 11:28:32;;;;;;;198.20;177.90;;;;;;;;;;5062778;28;20024;-76
2021/03/15 11:31:00;;;;;;;196.27;176.77;;;;;;;;;;5063768;28;20165;-76
2021/03/15 11:33:35;;;;;;;199.57;180.35;;;;;;;;;;5076039;28;20036;-76
2021/03/15 11:36:13;;;;;;;200.13;180.23;;;;;;;;;;5065650;28;20158;-77
2021/03/15 11:38:46;;;;;;;192.75;174.23;;;;;;;;;;5064762;28;20051;-77
2021/03/15 11:41:15;;;;;;;190.38;172.27;;;;;;;;;;5060627;28;20032;-77
2021/03/15 11:43:41;;;;;;;165.32;150.07;;;;;;;;;;5063792;28;20036;-77
2021/03/15 11:46:07;;;;;;;152.88;139.13;;;;;;;;;;5047791;28;20020;-77
2021/03/15 11:48:33;;;;;;;144.73;131.32;;;;;;;;;;5060683;28;20067;-77
2021/03/15 11:51:21;;;;;;;161.25;145.50;;;;;;;;;;5065600;28;20033;-77
2021/03/15 11:54:00;;;;;;;153.13;138.70;;;;;;;;;;5065333;28;20033;-77
2021/03/15 11:56:26;;;;;;;153.32;139.13;;;;;;;;;;5058360;28;20502;-77
2021/03/15 11:58:52;;;;;;;145.05;132.20;;;;;;;;;;5061422;28;20029;-77
2021/03/15 12:01:18;;;;;;;152.80;138.82;;;;;;;;;;5067841;28;20138;-76
2021/03/15 12:03:49;;;;;;;149.57;135.82;;;;;;;;;;5067741;28;20044;-76
2021/03/15 12:06:41;;;;;;;153.75;139.90;;;;;;;;;;5066680;28;20033;-76
2021/03/15 12:09:11;;;;;;;169.60;154.18;;;;;;;;;;5066938;28;20029;-78
2021/03/15 12:11:39;;;;;;;152.98;138.13;;;;;;;;;;5060091;28;20091;-78
2021/03/15 12:14:05;;;;;;;151.63;137.93;;;;;;;;;;5065469;28;20025;-78
2021/03/15 12:16:31;;;;;;;151.82;137.88;;;;;;;;;;5062867;28;20036;-78
2021/03/15 12:18:56;;;;;;;161.00;145.85;;;;;;;;;;5064779;28;20021;-78
2021/03/15 12:21:25;;;;;;;153.70;138.15;;;;;;;;;;5061592;28;20431;-80
2021/03/15 12:23:59;;;;;;;145.38;131.73;;;;;;;;;;5066690;28;20500;-78
2021/03/15 12:26:29;;;;;;;162.23;147.35;;;;;;;;;;5064675;28;20374;-78
2021/03/15 12:29:02;;;;;;;150.23;136.77;;;;;;;;;;5061372;28;20480;-75
2021/03/15 12:31:39;;;;;;;170.20;154.35;;;;;;;;;;5063035;28;20115;-75
2021/03/15 12:34:05;;;;;;;163.25;147.60;;;;;;;;;;5065099;28;20771;-75
2021/03/15 12:36:31;;;;;;;148.82;135.30;;;;;;;;;;5063864;28;20032;-75
2021/03/15 12:38:59;;;;;;;156.77;143.02;;;;;;;;;;5062628;28;20025;-76
2021/03/15 12:41:26;;;;;;;184.65;166.98;;;;;;;;;;5062078;28;20021;-75
2021/03/15 12:43:52;;;;;;;167.43;151.68;;;;;;;;;;5060466;28;20518;-76
2021/03/15 12:46:23;;;;;;;176.93;159.90;;;;;;;;;;5061341;28;20039;-76
2021/03/15 12:48:51;;;;;;;164.02;148.70;;;;;;;;;;5062557;28;20029;-76
2021/03/15 12:51:18;;;;;;;173.15;155.18;;;;;;;;;;5050680;28;20074;-76
2021/03/15 12:53:44;;;;;;;176.50;159.32;;;;;;;;;;5067614;28;20024;-76
2021/03/15 12:56:21;;;;;;;191.45;173.10;;;;;;;;;;5066832;28;20090;-78
2021/03/15 12:58:46;;;;;;;191.93;173.40;;;;;;;;;;5059815;28;20025;-77
2021/03/15 13:01:30;;;;;;;247.68;223.45;;;;;;;;;;5067221;28;20388;-78
2021/03/15 13:03:58;;;;;;;278.85;250.90;;;;;;;;;;5065213;28;20029;-77
2021/03/15 13:06:28;;;;;;;269.35;242.20;;;;;;;;;;5062490;28;20593;-76
2021/03/15 13:09:13;;;;;;;269.52;240.95;;;;;;;;;;5066840;28;20093;-76
2021/03/15 13:11:54;;;;;;;264.02;237.43;;;;;;;;;;5067241;28;20033;-76
2021/03/15 13:14:40;;;;;;;269.33;242.20;;;;;;;;;;5062371;28;20021;-76
2021/03/15 13:17:29;;;;;;;251.35;226.48;;;;;;;;;;5061063;28;20115;-76
2021/03/15 13:19:58;;;;;;;278.70;250.98;;;;;;;;;;5066165;28;20078;-76
2021/03/15 13:22:24;;;;;;;290.88;261.55;;;;;;;;;;5064273;28;20033;-77
2021/03/15 13:24:50;;;;;;;291.35;262.02;;;;;;;;;;5065259;28;20036;-76
2021/03/15 13:27:18;;;;;;;289.90;261.58;;;;;;;;;;5063669;28;20013;-77
2021/03/15 13:29:56;;;;;;;289.13;260.67;;;;;;;;;;5063888;28;20058;-77
2021/03/15 13:32:21;;;;;;;292.65;262.70;;;;;;;;;;5065091;28;20548;-77
2021/03/15 13:34:47;;;;;;;296.60;267.63;;;;;;;;;;5065854;28;20476;-77
2021/03/15 13:37:12;;;;;;;302.05;271.95;;;;;;;;;;5066226;28;20028;-77
2021/03/15 13:39:57;;;;;;;305.60;274.10;;;;;;;;;;5065678;28;20490;-77
2021/03/15 13:42:22;;;;;;;309.25;278.35;;;;;;;;;;5066170;28;20036;-78
2021/03/15 13:45:14;;;;;;;302.70;272.60;;;;;;;;;;5063062;28;20161;-78
2021/03/15 13:47:40;;;;;;;303.63;273.77;;;;;;;;;;5064027;28;20524;-78
2021/03/15 13:50:08;;;;;;;298.92;269.90;;;;;;;;;;5062469;28;21702;-77
2021/03/15 13:52:34;;;;;;;298.08;268.55;;;;;;;;;;5064156;28;20020;-76
2021/03/15 13:54:59;;;;;;;291.95;262.83;;;;;;;;;;5055538;28;20024;-77
2021/03/15 13:57:25;;;;;;;287.73;260.05;;;;;;;;;;5060831;28;20531;-76
2021/03/15 14:00:12;;;;;;;261.52;236.35;;;;;;;;;;5065660;28;20024;-77
2021/03/15 14:02:52;;;;;;;254.75;229.65;;;;;;;;;;5058897;28;20642;-77
2021/03/15 14:05:22;;;;;;;244.15;220.40;;;;;;;;;;5064614;28;20036;-77